sensor_id;sensor_type;location;lat;lon;timestamp;P1;durP1;ratioP1;P2;durP2;ratioP2
20411;SDS011;10365;52.578;8.138;2022-10-16T00:00:42;5.35;;;1.88;;
20411;SDS011;10365;52.578;8.138;2022-10-16T00:03:08;5.60;;;2.20;;
20411;SDS011;10365;52.578;8.138;2022-10-16T00:05:37;6.18;;;1.90;;
20411;SDS011;10365;52.578;8.138;2022-10-16T00:08:03;5.22;;;1.77;;
20411;SDS011;10365;52.578;8.138;2022-10-16T00:10:29;7.93;;;2.45;;
20411;SDS011;10365;52.578;8.138;2022-10-16T00:12:54;8.35;;;2.30;;
20411;SDS011;10365;52.578;8.138;2022-10-16T00:15:20;6.47;;;2.13;;
20411;SDS011;10365;52.578;8.138;2022-10-16T00:17:45;7.32;;;1.77;;
20411;SDS011;10365;52.578;8.138;2022-10-16T00:20:11;8.15;;;1.95;;
20411;SDS011;10365;52.578;8.138;2022-10-16T00:22:36;4.03;;;1.80;;
20411;SDS011;10365;52.578;8.138;2022-10-16T00:25:01;8.25;;;2.10;;
20411;SDS011;10365;52.578;8.138;2022-10-16T00:27:27;4.55;;;1.98;;
20411;SDS011;10365;52.578;8.138;2022-10-16T00:29:52;4.07;;;1.80;;
20411;SDS011;10365;52.578;8.138;2022-10-16T00:32:18;6.80;;;2.30;;
20411;SDS011;10365;52.578;8.138;2022-10-16T00:34:44;5.30;;;1.92;;
20411;SDS011;10365;52.578;8.138;2022-10-16T00:37:09;5.22;;;1.98;;
20411;SDS011;10365;52.578;8.138;2022-10-16T00:39:35;9.52;;;2.35;;
20411;SDS011;10365;52.578;8.138;2022-10-16T00:42:00;7.57;;;2.92;;
20411;SDS011;10365;52.578;8.138;2022-10-16T00:44:46;9.48;;;2.88;;
20411;SDS011;10365;52.578;8.138;2022-10-16T00:47:13;4.57;;;2.65;;
20411;SDS011;10365;52.578;8.138;2022-10-16T00:49:40;8.77;;;2.70;;
20411;SDS011;10365;52.578;8.138;2022-10-16T00:52:06;5.28;;;2.33;;
20411;SDS011;10365;52.578;8.138;2022-10-16T00:54:31;7.18;;;2.45;;
20411;SDS011;10365;52.578;8.138;2022-10-16T00:56:58;11.18;;;2.40;;
20411;SDS011;10365;52.578;8.138;2022-10-16T00:59:27;7.43;;;2.30;;
20411;SDS011;10365;52.578;8.138;2022-10-16T01:01:53;5.63;;;2.00;;
20411;SDS011;10365;52.578;8.138;2022-10-16T01:04:19;5.85;;;2.30;;
20411;SDS011;10365;52.578;8.138;2022-10-16T01:09:31;5.70;;;2.58;;
20411;SDS011;10365;52.578;8.138;2022-10-16T01:12:06;5.25;;;2.17;;
20411;SDS011;10365;52.578;8.138;2022-10-16T01:17:19;11.15;;;2.70;;
20411;SDS011;10365;52.578;8.138;2022-10-16T01:19:57;7.13;;;2.83;;
20411;SDS011;10365;52.578;8.138;2022-10-16T01:22:32;5.18;;;2.53;;
20411;SDS011;10365;52.578;8.138;2022-10-16T01:24:58;6.65;;;2.33;;
20411;SDS011;10365;52.578;8.138;2022-10-16T01:27:27;10.45;;;2.80;;
20411;SDS011;10365;52.578;8.138;2022-10-16T01:30:06;10.75;;;3.03;;
20411;SDS011;10365;52.578;8.138;2022-10-16T01:32:33;9.65;;;2.50;;
20411;SDS011;10365;52.578;8.138;2022-10-16T01:35:02;7.07;;;2.75;;
20411;SDS011;10365;52.578;8.138;2022-10-16T01:37:41;8.57;;;3.53;;
20411;SDS011;10365;52.578;8.138;2022-10-16T01:40:09;8.68;;;3.47;;
20411;SDS011;10365;52.578;8.138;2022-10-16T01:42:37;7.40;;;3.30;;
20411;SDS011;10365;52.578;8.138;2022-10-16T01:45:04;8.85;;;3.92;;
20411;SDS011;10365;52.578;8.138;2022-10-16T01:47:31;14.98;;;4.10;;
20411;SDS011;10365;52.578;8.138;2022-10-16T01:49:58;11.07;;;4.60;;
20411;SDS011;10365;52.578;8.138;2022-10-16T01:52:25;12.98;;;4.75;;
20411;SDS011;10365;52.578;8.138;2022-10-16T01:54:52;11.25;;;5.18;;
20411;SDS011;10365;52.578;8.138;2022-10-16T01:57:19;13.15;;;5.40;;
20411;SDS011;10365;52.578;8.138;2022-10-16T01:59:50;14.43;;;5.85;;
20411;SDS011;10365;52.578;8.138;2022-10-16T02:02:17;16.88;;;6.10;;
20411;SDS011;10365;52.578;8.138;2022-10-16T02:04:53;11.68;;;6.47;;
20411;SDS011;10365;52.578;8.138;2022-10-16T02:07:19;14.00;;;7.03;;
20411;SDS011;10365;52.578;8.138;2022-10-16T02:09:45;14.70;;;7.10;;
20411;SDS011;10365;52.578;8.138;2022-10-16T02:12:15;12.15;;;6.55;;
20411;SDS011;10365;52.578;8.138;2022-10-16T02:14:43;13.07;;;6.60;;
20411;SDS011;10365;52.578;8.138;2022-10-16T02:17:10;14.63;;;7.15;;
20411;SDS011;10365;52.578;8.138;2022-10-16T02:19:36;14.68;;;6.95;;
20411;SDS011;10365;52.578;8.138;2022-10-16T02:22:02;12.32;;;6.75;;
20411;SDS011;10365;52.578;8.138;2022-10-16T02:24:33;15.40;;;6.40;;
20411;SDS011;10365;52.578;8.138;2022-10-16T02:27:06;16.67;;;6.85;;
20411;SDS011;10365;52.578;8.138;2022-10-16T02:29:36;13.57;;;6.53;;
20411;SDS011;10365;52.578;8.138;2022-10-16T02:32:04;9.48;;;6.30;;
20411;SDS011;10365;52.578;8.138;2022-10-16T02:34:31;15.50;;;6.45;;
20411;SDS011;10365;52.578;8.138;2022-10-16T02:36:57;12.80;;;6.53;;
20411;SDS011;10365;52.578;8.138;2022-10-16T02:39:23;14.73;;;6.82;;
20411;SDS011;10365;52.578;8.138;2022-10-16T02:41:49;18.23;;;6.97;;
20411;SDS011;10365;52.578;8.138;2022-10-16T02:44:15;15.90;;;6.60;;
20411;SDS011;10365;52.578;8.138;2022-10-16T02:46:40;17.73;;;7.13;;
20411;SDS011;10365;52.578;8.138;2022-10-16T02:49:06;15.95;;;7.55;;
20411;SDS011;10365;52.578;8.138;2022-10-16T02:51:31;15.57;;;7.45;;
20411;SDS011;10365;52.578;8.138;2022-10-16T02:53:57;14.63;;;8.02;;
20411;SDS011;10365;52.578;8.138;2022-10-16T02:56:22;15.23;;;7.88;;
20411;SDS011;10365;52.578;8.138;2022-10-16T02:58:49;17.30;;;8.77;;
20411;SDS011;10365;52.578;8.138;2022-10-16T03:01:14;12.23;;;8.43;;
20411;SDS011;10365;52.578;8.138;2022-10-16T03:03:42;17.30;;;9.60;;
20411;SDS011;10365;52.578;8.138;2022-10-16T03:06:07;15.18;;;9.27;;
20411;SDS011;10365;52.578;8.138;2022-10-16T03:08:33;13.43;;;8.98;;
20411;SDS011;10365;52.578;8.138;2022-10-16T03:10:59;18.45;;;10.25;;
20411;SDS011;10365;52.578;8.138;2022-10-16T03:13:26;17.23;;;9.32;;
20411;SDS011;10365;52.578;8.138;2022-10-16T03:15:52;15.77;;;9.48;;
20411;SDS011;10365;52.578;8.138;2022-10-16T03:18:17;16.77;;;9.50;;
20411;SDS011;10365;52.578;8.138;2022-10-16T03:20:43;16.35;;;9.98;;
20411;SDS011;10365;52.578;8.138;2022-10-16T03:23:09;19.13;;;9.48;;
20411;SDS011;10365;52.578;8.138;2022-10-16T03:25:34;16.52;;;9.27;;
20411;SDS011;10365;52.578;8.138;2022-10-16T03:28:00;17.40;;;9.02;;
20411;SDS011;10365;52.578;8.138;2022-10-16T03:30:25;15.30;;;8.52;;
20411;SDS011;10365;52.578;8.138;2022-10-16T03:32:51;27.02;;;10.00;;
20411;SDS011;10365;52.578;8.138;2022-10-16T03:35:22;17.33;;;8.88;;
20411;SDS011;10365;52.578;8.138;2022-10-16T03:37:48;19.70;;;9.10;;
20411;SDS011;10365;52.578;8.138;2022-10-16T03:40:14;17.00;;;9.20;;
20411;SDS011;10365;52.578;8.138;2022-10-16T03:42:39;16.83;;;9.88;;
20411;SDS011;10365;52.578;8.138;2022-10-16T03:45:06;19.73;;;9.50;;
20411;SDS011;10365;52.578;8.138;2022-10-16T03:47:31;18.48;;;9.32;;
20411;SDS011;10365;52.578;8.138;2022-10-16T03:49:59;15.65;;;9.85;;
20411;SDS011;10365;52.578;8.138;2022-10-16T03:52:24;16.10;;;9.07;;
20411;SDS011;10365;52.578;8.138;2022-10-16T03:54:50;19.02;;;9.40;;
20411;SDS011;10365;52.578;8.138;2022-10-16T03:57:15;19.75;;;9.30;;
20411;SDS011;10365;52.578;8.138;2022-10-16T03:59:41;14.25;;;8.55;;
20411;SDS011;10365;52.578;8.138;2022-10-16T04:02:06;14.43;;;8.13;;
20411;SDS011;10365;52.578;8.138;2022-10-16T04:04:32;14.32;;;8.80;;
20411;SDS011;10365;52.578;8.138;2022-10-16T04:06:57;12.18;;;7.13;;
20411;SDS011;10365;52.578;8.138;2022-10-16T04:09:23;14.20;;;8.07;;
20411;SDS011;10365;52.578;8.138;2022-10-16T04:11:49;15.90;;;7.63;;
20411;SDS011;10365;52.578;8.138;2022-10-16T04:14:15;11.98;;;7.80;;
20411;SDS011;10365;52.578;8.138;2022-10-16T04:16:40;10.80;;;7.03;;
20411;SDS011;10365;52.578;8.138;2022-10-16T04:19:06;12.45;;;8.30;;
20411;SDS011;10365;52.578;8.138;2022-10-16T04:21:31;14.23;;;6.95;;
20411;SDS011;10365;52.578;8.138;2022-10-16T04:23:57;10.88;;;6.47;;
20411;SDS011;10365;52.578;8.138;2022-10-16T04:26:23;11.48;;;6.00;;
20411;SDS011;10365;52.578;8.138;2022-10-16T04:28:48;11.68;;;6.13;;
20411;SDS011;10365;52.578;8.138;2022-10-16T04:31:14;12.15;;;5.72;;
20411;SDS011;10365;52.578;8.138;2022-10-16T04:33:41;8.77;;;5.32;;
20411;SDS011;10365;52.578;8.138;2022-10-16T04:36:08;8.68;;;5.10;;
20411;SDS011;10365;52.578;8.138;2022-10-16T04:38:33;9.65;;;5.65;;
20411;SDS011;10365;52.578;8.138;2022-10-16T04:40:59;9.77;;;5.13;;
20411;SDS011;10365;52.578;8.138;2022-10-16T04:43:25;9.48;;;5.43;;
20411;SDS011;10365;52.578;8.138;2022-10-16T04:45:51;9.75;;;5.32;;
20411;SDS011;10365;52.578;8.138;2022-10-16T04:48:18;10.00;;;5.03;;
20411;SDS011;10365;52.578;8.138;2022-10-16T04:50:44;10.15;;;5.13;;
20411;SDS011;10365;52.578;8.138;2022-10-16T04:53:10;8.02;;;4.63;;
20411;SDS011;10365;52.578;8.138;2022-10-16T04:55:36;8.90;;;4.93;;
20411;SDS011;10365;52.578;8.138;2022-10-16T04:58:02;7.75;;;4.82;;
20411;SDS011;10365;52.578;8.138;2022-10-16T05:00:28;7.10;;;4.65;;
20411;SDS011;10365;52.578;8.138;2022-10-16T05:02:53;10.18;;;4.85;;
20411;SDS011;10365;52.578;8.138;2022-10-16T05:05:19;7.38;;;5.05;;
20411;SDS011;10365;52.578;8.138;2022-10-16T05:07:45;13.65;;;4.70;;
20411;SDS011;10365;52.578;8.138;2022-10-16T05:10:10;10.73;;;4.82;;
20411;SDS011;10365;52.578;8.138;2022-10-16T05:12:36;8.38;;;5.00;;
20411;SDS011;10365;52.578;8.138;2022-10-16T05:15:02;6.55;;;4.30;;
20411;SDS011;10365;52.578;8.138;2022-10-16T05:17:27;9.20;;;4.72;;
20411;SDS011;10365;52.578;8.138;2022-10-16T05:19:53;10.55;;;5.13;;
20411;SDS011;10365;52.578;8.138;2022-10-16T05:22:18;6.32;;;4.30;;
20411;SDS011;10365;52.578;8.138;2022-10-16T05:24:43;8.10;;;4.93;;
20411;SDS011;10365;52.578;8.138;2022-10-16T05:27:09;10.63;;;5.13;;
20411;SDS011;10365;52.578;8.138;2022-10-16T05:29:35;9.63;;;5.40;;
20411;SDS011;10365;52.578;8.138;2022-10-16T05:32:00;8.00;;;5.20;;
20411;SDS011;10365;52.578;8.138;2022-10-16T05:34:27;10.48;;;5.68;;
20411;SDS011;10365;52.578;8.138;2022-10-16T05:36:52;13.90;;;5.38;;
20411;SDS011;10365;52.578;8.138;2022-10-16T05:39:18;8.95;;;5.28;;
20411;SDS011;10365;52.578;8.138;2022-10-16T05:41:44;7.63;;;5.03;;
20411;SDS011;10365;52.578;8.138;2022-10-16T05:44:09;8.95;;;4.75;;
20411;SDS011;10365;52.578;8.138;2022-10-16T05:46:35;8.27;;;5.55;;
20411;SDS011;10365;52.578;8.138;2022-10-16T05:49:01;7.95;;;5.15;;
20411;SDS011;10365;52.578;8.138;2022-10-16T05:51:26;10.02;;;5.32;;
20411;SDS011;10365;52.578;8.138;2022-10-16T05:53:52;8.73;;;4.90;;
20411;SDS011;10365;52.578;8.138;2022-10-16T05:56:17;10.48;;;5.25;;
20411;SDS011;10365;52.578;8.138;2022-10-16T05:58:43;8.00;;;4.57;;
20411;SDS011;10365;52.578;8.138;2022-10-16T06:01:10;8.85;;;5.10;;
20411;SDS011;10365;52.578;8.138;2022-10-16T06:03:37;8.45;;;5.22;;
20411;SDS011;10365;52.578;8.138;2022-10-16T06:08:34;7.30;;;4.78;;
20411;SDS011;10365;52.578;8.138;2022-10-16T06:11:00;8.90;;;4.60;;
20411;SDS011;10365;52.578;8.138;2022-10-16T06:13:27;8.25;;;4.50;;
20411;SDS011;10365;52.578;8.138;2022-10-16T06:15:52;8.30;;;4.45;;
20411;SDS011;10365;52.578;8.138;2022-10-16T06:18:17;8.27;;;4.97;;
20411;SDS011;10365;52.578;8.138;2022-10-16T06:20:43;6.70;;;4.18;;
20411;SDS011;10365;52.578;8.138;2022-10-16T06:23:08;8.80;;;4.18;;
20411;SDS011;10365;52.578;8.138;2022-10-16T06:25:34;5.30;;;4.05;;
20411;SDS011;10365;52.578;8.138;2022-10-16T06:27:59;8.52;;;4.50;;
20411;SDS011;10365;52.578;8.138;2022-10-16T06:30:25;7.63;;;4.20;;
20411;SDS011;10365;52.578;8.138;2022-10-16T06:32:50;6.18;;;3.88;;
20411;SDS011;10365;52.578;8.138;2022-10-16T06:35:17;5.30;;;3.55;;
20411;SDS011;10365;52.578;8.138;2022-10-16T06:37:42;6.88;;;3.42;;
20411;SDS011;10365;52.578;8.138;2022-10-16T06:40:08;7.15;;;3.85;;
20411;SDS011;10365;52.578;8.138;2022-10-16T06:42:33;6.03;;;3.70;;
20411;SDS011;10365;52.578;8.138;2022-10-16T06:44:58;7.38;;;3.78;;
20411;SDS011;10365;52.578;8.138;2022-10-16T06:47:24;10.98;;;4.22;;
20411;SDS011;10365;52.578;8.138;2022-10-16T06:49:49;6.82;;;4.38;;
20411;SDS011;10365;52.578;8.138;2022-10-16T06:52:15;5.65;;;3.90;;
20411;SDS011;10365;52.578;8.138;2022-10-16T06:54:40;7.22;;;4.18;;
20411;SDS011;10365;52.578;8.138;2022-10-16T06:57:06;6.95;;;4.10;;
20411;SDS011;10365;52.578;8.138;2022-10-16T06:59:31;5.07;;;3.58;;
20411;SDS011;10365;52.578;8.138;2022-10-16T07:01:57;6.40;;;3.58;;
20411;SDS011;10365;52.578;8.138;2022-10-16T07:04:22;5.43;;;4.25;;
20411;SDS011;10365;52.578;8.138;2022-10-16T07:06:48;10.07;;;4.20;;
20411;SDS011;10365;52.578;8.138;2022-10-16T07:09:13;6.68;;;4.03;;
20411;SDS011;10365;52.578;8.138;2022-10-16T07:11:39;10.10;;;4.13;;
20411;SDS011;10365;52.578;8.138;2022-10-16T07:14:08;9.45;;;3.85;;
20411;SDS011;10365;52.578;8.138;2022-10-16T07:16:36;7.55;;;3.85;;
20411;SDS011;10365;52.578;8.138;2022-10-16T07:19:02;7.90;;;4.10;;
20411;SDS011;10365;52.578;8.138;2022-10-16T07:21:28;6.40;;;3.50;;
20411;SDS011;10365;52.578;8.138;2022-10-16T07:23:54;7.97;;;3.97;;
20411;SDS011;10365;52.578;8.138;2022-10-16T07:26:21;9.85;;;3.95;;
20411;SDS011;10365;52.578;8.138;2022-10-16T07:28:46;10.43;;;3.40;;
20411;SDS011;10365;52.578;8.138;2022-10-16T07:31:12;9.90;;;4.93;;
20411;SDS011;10365;52.578;8.138;2022-10-16T07:33:39;9.23;;;3.78;;
20411;SDS011;10365;52.578;8.138;2022-10-16T07:36:05;4.88;;;3.10;;
20411;SDS011;10365;52.578;8.138;2022-10-16T07:38:31;10.75;;;4.57;;
20411;SDS011;10365;52.578;8.138;2022-10-16T07:41:00;12.10;;;4.10;;
20411;SDS011;10365;52.578;8.138;2022-10-16T07:43:26;6.35;;;3.38;;
20411;SDS011;10365;52.578;8.138;2022-10-16T07:45:52;10.15;;;3.40;;
20411;SDS011;10365;52.578;8.138;2022-10-16T07:48:18;4.13;;;2.63;;
20411;SDS011;10365;52.578;8.138;2022-10-16T07:50:44;7.68;;;2.88;;
20411;SDS011;10365;52.578;8.138;2022-10-16T07:53:10;12.63;;;2.90;;
20411;SDS011;10365;52.578;8.138;2022-10-16T07:55:36;4.75;;;2.38;;
20411;SDS011;10365;52.578;8.138;2022-10-16T07:58:01;7.60;;;2.95;;
20411;SDS011;10365;52.578;8.138;2022-10-16T08:00:27;7.40;;;2.70;;
20411;SDS011;10365;52.578;8.138;2022-10-16T08:02:52;10.82;;;3.22;;
20411;SDS011;10365;52.578;8.138;2022-10-16T08:05:18;10.65;;;2.72;;
20411;SDS011;10365;52.578;8.138;2022-10-16T08:07:48;8.13;;;3.42;;
20411;SDS011;10365;52.578;8.138;2022-10-16T08:10:17;6.40;;;2.42;;
20411;SDS011;10365;52.578;8.138;2022-10-16T08:12:43;6.90;;;3.35;;
20411;SDS011;10365;52.578;8.138;2022-10-16T08:15:11;6.70;;;3.13;;
20411;SDS011;10365;52.578;8.138;2022-10-16T08:17:36;8.63;;;3.17;;
20411;SDS011;10365;52.578;8.138;2022-10-16T08:20:02;6.93;;;2.95;;
20411;SDS011;10365;52.578;8.138;2022-10-16T08:22:27;9.63;;;2.67;;
20411;SDS011;10365;52.578;8.138;2022-10-16T08:24:53;6.55;;;2.17;;
20411;SDS011;10365;52.578;8.138;2022-10-16T08:27:18;6.13;;;2.53;;
20411;SDS011;10365;52.578;8.138;2022-10-16T08:29:44;4.30;;;1.85;;
20411;SDS011;10365;52.578;8.138;2022-10-16T08:32:09;12.38;;;2.55;;
20411;SDS011;10365;52.578;8.138;2022-10-16T08:34:34;11.27;;;6.15;;
20411;SDS011;10365;52.578;8.138;2022-10-16T08:37:00;9.35;;;4.90;;
20411;SDS011;10365;52.578;8.138;2022-10-16T08:39:25;21.63;;;9.43;;
20411;SDS011;10365;52.578;8.138;2022-10-16T08:47:17;16.40;;;8.43;;
20411;SDS011;10365;52.578;8.138;2022-10-16T08:49:49;12.55;;;4.38;;
20411;SDS011;10365;52.578;8.138;2022-10-16T08:52:16;8.10;;;4.07;;
20411;SDS011;10365;52.578;8.138;2022-10-16T08:54:42;8.52;;;2.33;;
20411;SDS011;10365;52.578;8.138;2022-10-16T08:57:09;7.10;;;3.83;;
20411;SDS011;10365;52.578;8.138;2022-10-16T08:59:36;5.13;;;2.15;;
20411;SDS011;10365;52.578;8.138;2022-10-16T09:02:02;5.55;;;2.08;;
20411;SDS011;10365;52.578;8.138;2022-10-16T09:12:26;9.27;;;5.97;;
20411;SDS011;10365;52.578;8.138;2022-10-16T09:19:46;4.22;;;1.55;;
20411;SDS011;10365;52.578;8.138;2022-10-16T09:22:16;5.10;;;1.30;;
20411;SDS011;10365;52.578;8.138;2022-10-16T09:24:42;3.65;;;1.20;;
20411;SDS011;10365;52.578;8.138;2022-10-16T09:27:09;3.60;;;1.30;;
20411;SDS011;10365;52.578;8.138;2022-10-16T09:29:35;3.97;;;1.20;;
20411;SDS011;10365;52.578;8.138;2022-10-16T09:32:07;5.55;;;2.22;;
20411;SDS011;10365;52.578;8.138;2022-10-16T09:34:39;8.93;;;1.42;;
20411;SDS011;10365;52.578;8.138;2022-10-16T09:37:12;3.53;;;1.55;;
20411;SDS011;10365;52.578;8.138;2022-10-16T09:39:52;3.72;;;1.40;;
20411;SDS011;10365;52.578;8.138;2022-10-16T09:44:46;4.95;;;1.30;;
20411;SDS011;10365;52.578;8.138;2022-10-16T09:47:14;3.03;;;1.58;;
20411;SDS011;10365;52.578;8.138;2022-10-16T09:49:50;4.75;;;1.20;;
20411;SDS011;10365;52.578;8.138;2022-10-16T09:52:15;5.75;;;2.10;;
20411;SDS011;10365;52.578;8.138;2022-10-16T09:55:16;6.32;;;2.00;;
20411;SDS011;10365;52.578;8.138;2022-10-16T09:57:33;7.18;;;1.00;;
20411;SDS011;10365;52.578;8.138;2022-10-16T09:59:59;3.40;;;1.10;;
20411;SDS011;10365;52.578;8.138;2022-10-16T10:02:29;2.55;;;1.00;;
20411;SDS011;10365;52.578;8.138;2022-10-16T10:04:56;3.53;;;1.10;;
20411;SDS011;10365;52.578;8.138;2022-10-16T10:07:30;6.97;;;4.22;;
20411;SDS011;10365;52.578;8.138;2022-10-16T10:09:59;4.88;;;1.77;;
20411;SDS011;10365;52.578;8.138;2022-10-16T10:12:29;6.20;;;1.40;;
20411;SDS011;10365;52.578;8.138;2022-10-16T10:14:58;5.10;;;2.00;;
20411;SDS011;10365;52.578;8.138;2022-10-16T10:17:24;4.93;;;0.77;;
20411;SDS011;10365;52.578;8.138;2022-10-16T10:19:57;5.60;;;1.25;;
20411;SDS011;10365;52.578;8.138;2022-10-16T10:22:27;8.68;;;1.25;;
20411;SDS011;10365;52.578;8.138;2022-10-16T10:27:42;8.23;;;1.40;;
20411;SDS011;10365;52.578;8.138;2022-10-16T10:32:46;7.13;;;0.88;;
20411;SDS011;10365;52.578;8.138;2022-10-16T10:37:55;6.00;;;1.42;;
20411;SDS011;10365;52.578;8.138;2022-10-16T10:48:06;6.13;;;1.80;;
20411;SDS011;10365;52.578;8.138;2022-10-16T10:53:08;7.22;;;2.15;;
20411;SDS011;10365;52.578;8.138;2022-10-16T11:06:05;6.53;;;2.80;;
20411;SDS011;10365;52.578;8.138;2022-10-16T11:08:34;5.22;;;1.00;;
20411;SDS011;10365;52.578;8.138;2022-10-16T11:11:04;9.10;;;1.00;;
20411;SDS011;10365;52.578;8.138;2022-10-16T11:16:10;5.68;;;1.40;;
20411;SDS011;10365;52.578;8.138;2022-10-16T11:18:43;3.40;;;0.73;;
20411;SDS011;10365;52.578;8.138;2022-10-16T11:21:11;2.00;;;0.55;;
20411;SDS011;10365;52.578;8.138;2022-10-16T11:23:55;5.78;;;0.93;;
20411;SDS011;10365;52.578;8.138;2022-10-16T11:26:27;2.80;;;1.15;;
20411;SDS011;10365;52.578;8.138;2022-10-16T11:28:55;2.88;;;0.70;;
20411;SDS011;10365;52.578;8.138;2022-10-16T11:36:23;6.13;;;1.13;;
20411;SDS011;10365;52.578;8.138;2022-10-16T11:41:34;9.13;;;3.65;;
20411;SDS011;10365;52.578;8.138;2022-10-16T11:46:28;5.40;;;0.90;;
20411;SDS011;10365;52.578;8.138;2022-10-16T11:48:58;4.63;;;1.23;;
20411;SDS011;10365;52.578;8.138;2022-10-16T11:51:36;4.45;;;0.93;;
20411;SDS011;10365;52.578;8.138;2022-10-16T11:56:36;4.95;;;1.10;;
20411;SDS011;10365;52.578;8.138;2022-10-16T11:59:16;4.43;;;1.08;;
20411;SDS011;10365;52.578;8.138;2022-10-16T12:04:36;5.97;;;1.40;;
20411;SDS011;10365;52.578;8.138;2022-10-16T12:07:11;6.55;;;1.20;;
20411;SDS011;10365;52.578;8.138;2022-10-16T12:09:40;4.15;;;0.77;;
20411;SDS011;10365;52.578;8.138;2022-10-16T12:12:23;5.50;;;1.10;;
20411;SDS011;10365;52.578;8.138;2022-10-16T12:14:59;6.13;;;1.23;;
20411;SDS011;10365;52.578;8.138;2022-10-16T12:17:34;4.60;;;1.33;;
20411;SDS011;10365;52.578;8.138;2022-10-16T12:20:53;6.10;;;1.10;;
20411;SDS011;10365;52.578;8.138;2022-10-16T12:22:50;3.65;;;0.90;;
20411;SDS011;10365;52.578;8.138;2022-10-16T12:27:58;8.98;;;0.98;;
20411;SDS011;10365;52.578;8.138;2022-10-16T12:30:24;9.77;;;1.40;;
20411;SDS011;10365;52.578;8.138;2022-10-16T12:32:54;8.38;;;1.88;;
20411;SDS011;10365;52.578;8.138;2022-10-16T12:35:21;13.63;;;2.90;;
20411;SDS011;10365;52.578;8.138;2022-10-16T12:37:48;6.07;;;1.40;;
20411;SDS011;10365;52.578;8.138;2022-10-16T12:40:15;13.55;;;4.22;;
20411;SDS011;10365;52.578;8.138;2022-10-16T12:42:41;14.02;;;4.53;;
20411;SDS011;10365;52.578;8.138;2022-10-16T12:47:52;5.57;;;1.10;;
20411;SDS011;10365;52.578;8.138;2022-10-16T12:52:53;10.93;;;1.58;;
20411;SDS011;10365;52.578;8.138;2022-10-16T12:55:20;7.30;;;1.23;;
20411;SDS011;10365;52.578;8.138;2022-10-16T13:08:24;8.45;;;1.67;;
20411;SDS011;10365;52.578;8.138;2022-10-16T13:16:02;10.02;;;2.20;;
20411;SDS011;10365;52.578;8.138;2022-10-16T13:23:33;10.80;;;1.70;;
20411;SDS011;10365;52.578;8.138;2022-10-16T13:26:06;4.65;;;1.90;;
20411;SDS011;10365;52.578;8.138;2022-10-16T13:28:34;7.95;;;2.35;;
20411;SDS011;10365;52.578;8.138;2022-10-16T13:31:01;8.10;;;2.42;;
20411;SDS011;10365;52.578;8.138;2022-10-16T13:33:30;7.25;;;2.20;;
20411;SDS011;10365;52.578;8.138;2022-10-16T13:35:56;7.97;;;2.45;;
20411;SDS011;10365;52.578;8.138;2022-10-16T13:38:23;10.27;;;2.35;;
20411;SDS011;10365;52.578;8.138;2022-10-16T13:40:56;6.28;;;2.15;;
20411;SDS011;10365;52.578;8.138;2022-10-16T13:43:26;9.35;;;2.55;;
20411;SDS011;10365;52.578;8.138;2022-10-16T13:45:54;9.15;;;1.95;;
20411;SDS011;10365;52.578;8.138;2022-10-16T13:48:19;8.30;;;2.53;;
20411;SDS011;10365;52.578;8.138;2022-10-16T13:50:45;7.28;;;2.22;;
20411;SDS011;10365;52.578;8.138;2022-10-16T13:53:14;8.25;;;2.80;;
20411;SDS011;10365;52.578;8.138;2022-10-16T13:55:40;8.32;;;3.10;;
20411;SDS011;10365;52.578;8.138;2022-10-16T13:58:10;10.30;;;2.90;;
20411;SDS011;10365;52.578;8.138;2022-10-16T14:00:36;7.25;;;2.40;;
20411;SDS011;10365;52.578;8.138;2022-10-16T14:03:03;10.48;;;3.15;;
20411;SDS011;10365;52.578;8.138;2022-10-16T14:05:30;6.13;;;2.20;;
20411;SDS011;10365;52.578;8.138;2022-10-16T14:07:55;10.65;;;2.42;;
20411;SDS011;10365;52.578;8.138;2022-10-16T14:10:23;9.10;;;2.42;;
20411;SDS011;10365;52.578;8.138;2022-10-16T14:13:02;6.15;;;1.77;;
20411;SDS011;10365;52.578;8.138;2022-10-16T14:15:28;6.20;;;1.95;;
20411;SDS011;10365;52.578;8.138;2022-10-16T14:17:54;8.73;;;1.92;;
20411;SDS011;10365;52.578;8.138;2022-10-16T14:20:20;11.05;;;1.92;;
20411;SDS011;10365;52.578;8.138;2022-10-16T14:22:48;8.35;;;1.90;;
20411;SDS011;10365;52.578;8.138;2022-10-16T14:25:26;9.13;;;1.73;;
20411;SDS011;10365;52.578;8.138;2022-10-16T14:30:28;6.32;;;1.70;;
20411;SDS011;10365;52.578;8.138;2022-10-16T14:33:01;7.30;;;1.65;;
20411;SDS011;10365;52.578;8.138;2022-10-16T14:37:53;5.30;;;1.60;;
20411;SDS011;10365;52.578;8.138;2022-10-16T14:40:18;8.10;;;1.55;;
20411;SDS011;10365;52.578;8.138;2022-10-16T14:42:44;7.95;;;1.40;;
20411;SDS011;10365;52.578;8.138;2022-10-16T14:45:10;10.80;;;1.88;;
20411;SDS011;10365;52.578;8.138;2022-10-16T14:47:36;5.57;;;1.23;;
20411;SDS011;10365;52.578;8.138;2022-10-16T14:50:11;7.20;;;1.58;;
20411;SDS011;10365;52.578;8.138;2022-10-16T14:52:37;7.35;;;2.03;;
20411;SDS011;10365;52.578;8.138;2022-10-16T14:55:02;6.63;;;1.42;;
20411;SDS011;10365;52.578;8.138;2022-10-16T14:57:28;7.10;;;1.58;;
20411;SDS011;10365;52.578;8.138;2022-10-16T14:59:56;4.50;;;1.33;;
20411;SDS011;10365;52.578;8.138;2022-10-16T15:02:27;6.25;;;1.25;;
20411;SDS011;10365;52.578;8.138;2022-10-16T15:04:53;5.97;;;1.55;;
20411;SDS011;10365;52.578;8.138;2022-10-16T15:07:19;4.93;;;1.10;;
20411;SDS011;10365;52.578;8.138;2022-10-16T15:09:44;8.38;;;2.28;;
20411;SDS011;10365;52.578;8.138;2022-10-16T15:12:10;5.65;;;1.70;;
20411;SDS011;10365;52.578;8.138;2022-10-16T15:14:36;9.63;;;2.40;;
20411;SDS011;10365;52.578;8.138;2022-10-16T15:17:02;7.38;;;1.50;;
20411;SDS011;10365;52.578;8.138;2022-10-16T15:19:27;8.63;;;1.75;;
20411;SDS011;10365;52.578;8.138;2022-10-16T15:21:52;8.18;;;1.58;;
20411;SDS011;10365;52.578;8.138;2022-10-16T15:24:18;4.30;;;1.40;;
20411;SDS011;10365;52.578;8.138;2022-10-16T15:26:43;5.22;;;1.33;;
20411;SDS011;10365;52.578;8.138;2022-10-16T15:29:11;7.93;;;1.77;;
20411;SDS011;10365;52.578;8.138;2022-10-16T15:31:36;4.85;;;1.40;;
20411;SDS011;10365;52.578;8.138;2022-10-16T15:34:02;5.90;;;1.77;;
20411;SDS011;10365;52.578;8.138;2022-10-16T15:36:33;7.38;;;1.35;;
20411;SDS011;10365;52.578;8.138;2022-10-16T15:39:01;13.43;;;3.67;;
20411;SDS011;10365;52.578;8.138;2022-10-16T15:41:27;4.88;;;2.00;;
20411;SDS011;10365;52.578;8.138;2022-10-16T15:43:52;8.25;;;1.70;;
20411;SDS011;10365;52.578;8.138;2022-10-16T15:46:18;3.92;;;1.40;;
20411;SDS011;10365;52.578;8.138;2022-10-16T15:48:44;4.57;;;1.60;;
20411;SDS011;10365;52.578;8.138;2022-10-16T15:51:09;6.90;;;1.38;;
20411;SDS011;10365;52.578;8.138;2022-10-16T15:53:35;7.82;;;2.17;;
20411;SDS011;10365;52.578;8.138;2022-10-16T15:56:02;8.13;;;2.33;;
20411;SDS011;10365;52.578;8.138;2022-10-16T15:58:27;8.82;;;4.72;;
20411;SDS011;10365;52.578;8.138;2022-10-16T16:00:56;11.60;;;4.53;;
20411;SDS011;10365;52.578;8.138;2022-10-16T16:03:22;9.52;;;3.63;;
20411;SDS011;10365;52.578;8.138;2022-10-16T16:05:48;10.63;;;4.82;;
20411;SDS011;10365;52.578;8.138;2022-10-16T16:08:13;12.95;;;3.75;;
20411;SDS011;10365;52.578;8.138;2022-10-16T16:10:38;7.78;;;3.08;;
20411;SDS011;10365;52.578;8.138;2022-10-16T16:13:04;7.85;;;2.88;;
20411;SDS011;10365;52.578;8.138;2022-10-16T16:15:29;6.05;;;2.17;;
20411;SDS011;10365;52.578;8.138;2022-10-16T16:17:55;5.03;;;2.08;;
20411;SDS011;10365;52.578;8.138;2022-10-16T16:20:20;7.60;;;3.08;;
20411;SDS011;10365;52.578;8.138;2022-10-16T16:22:46;6.55;;;2.88;;
20411;SDS011;10365;52.578;8.138;2022-10-16T16:25:11;9.18;;;2.92;;
20411;SDS011;10365;52.578;8.138;2022-10-16T16:27:36;10.57;;;2.78;;
20411;SDS011;10365;52.578;8.138;2022-10-16T16:30:04;6.80;;;2.00;;
20411;SDS011;10365;52.578;8.138;2022-10-16T16:32:30;6.68;;;1.60;;